Řízení letového provozu České republiky
Letiste: LKNA Aktualizace: 16.10.2019 00:00:30  UTC
 METAR LKNA 16.10. 00:00 ...
METAR LKNA 160000Z 12006KT CAVOK 12/12 Q1009 RMK BLU=
 TAF LKNA 15.10. 23:00 ...
TAF LKNA 152300Z 1600/1700 11008KT CAVOK      PROB30 TEMPO 1600/1606 3000 BR      BECMG 1606/1608 28008KT 9999 BKN035      TEMPO 1606/1616 7000 RA BKN020=